KLM2647 EHAM-LSZH
Flight info
| Callsign | KLM2647 |
|---|---|
| Flight time | 1h 4m |
| Altitude | 35000 |
| Route | EDUPO Z739 MISGO DCT ASBON DCT TUSUK DCT LAMGO/N0411F270 T721 SUL/N0399F250 T721 RILAX |
| Aircraft | A321/M-SDE3FGHIRWY/LB1 |
Departure
| Time | 2026-05-05 12:21 |
|---|---|
| Airport | Amsterdam Airport Schiphol (EHAM) |
Arrival
| Time | 2026-05-05 13:26 |
|---|---|
| Airport | Zürich Airport (LSZH) |
| Time | Latitude | Longitude | Altitude | Speed | Heading |
|---|---|---|---|---|---|
| 2026-05-05 11:53 | 52.30879 | 4.77300 | -2 ft | 0 kts | 2° |
| 2026-05-05 12:09 | 52.30874 | 4.77300 | -2 ft | 3 kts | 2° |
| 2026-05-05 12:10 | 52.30856 | 4.77293 | -2 ft | 3 kts | 52° |
| 2026-05-05 12:10 | 52.30850 | 4.77273 | -2 ft | 0 kts | 89° |
| 2026-05-05 12:13 | 52.30850 | 4.77274 | -2 ft | 1 kts | 89° |
| 2026-05-05 12:13 | 52.30843 | 4.77335 | -2 ft | 13 kts | 101° |
| 2026-05-05 12:13 | 52.30791 | 4.77458 | -2 ft | 14 kts | 167° |
| 2026-05-05 12:13 | 52.30689 | 4.77454 | -2 ft | 16 kts | 189° |
| 2026-05-05 12:14 | 52.30610 | 4.77345 | -2 ft | 17 kts | 237° |
| 2026-05-05 12:14 | 52.30536 | 4.77145 | -2 ft | 22 kts | 238° |
| 2026-05-05 12:14 | 52.30449 | 4.76916 | -2 ft | 25 kts | 239° |
| 2026-05-05 12:14 | 52.30356 | 4.76678 | -2 ft | 26 kts | 238° |
| 2026-05-05 12:15 | 52.30257 | 4.76422 | -2 ft | 28 kts | 237° |
| 2026-05-05 12:15 | 52.30151 | 4.76151 | -2 ft | 28 kts | 238° |
| 2026-05-05 12:15 | 52.30051 | 4.75887 | -2 ft | 27 kts | 238° |
| 2026-05-05 12:15 | 52.29948 | 4.75616 | -2 ft | 29 kts | 238° |
| 2026-05-05 12:16 | 52.29845 | 4.75343 | -2 ft | 28 kts | 245° |
| 2026-05-05 12:16 | 52.29898 | 4.75090 | -2 ft | 24 kts | 306° |
| 2026-05-05 12:16 | 52.30010 | 4.74879 | -2 ft | 26 kts | 312° |
| 2026-05-05 12:16 | 52.30130 | 4.74660 | -2 ft | 26 kts | 312° |
| 2026-05-05 12:17 | 52.30230 | 4.74473 | -2 ft | 19 kts | 310° |
| 2026-05-05 12:17 | 52.30295 | 4.74352 | -2 ft | 12 kts | 311° |
| 2026-05-05 12:17 | 52.30355 | 4.74240 | -2 ft | 12 kts | 311° |
| 2026-05-05 12:17 | 52.30421 | 4.74104 | -2 ft | 18 kts | 296° |
| 2026-05-05 12:18 | 52.30408 | 4.73968 | -3 ft | 11 kts | 259° |
| 2026-05-05 12:18 | 52.30411 | 4.73815 | -5 ft | 18 kts | 274° |
| 2026-05-05 12:18 | 52.30440 | 4.73756 | -5 ft | 6 kts | 11° |
| 2026-05-05 12:18 | 52.30512 | 4.73764 | -5 ft | 7 kts | 4° |
| 2026-05-05 12:19 | 52.30567 | 4.73770 | -6 ft | 9 kts | 4° |
| 2026-05-05 12:19 | 52.30580 | 4.73771 | -6 ft | 3 kts | 4° |
| 2026-05-05 12:19 | 52.30596 | 4.73773 | -6 ft | 0 kts | 4° |
| 2026-05-05 12:19 | 52.30598 | 4.73773 | -6 ft | 2 kts | 4° |
| 2026-05-05 12:20 | 52.30602 | 4.73773 | -6 ft | 0 kts | 4° |
| 2026-05-05 12:20 | 52.30640 | 4.73776 | -5 ft | 29 kts | 2° |
| 2026-05-05 12:21 | 52.31182 | 4.73826 | -2 ft | 123 kts | 3° |
| 2026-05-05 12:21 | 52.32258 | 4.73900 | 211 ft | 174 kts | 4° |
| 2026-05-05 12:21 | 52.33489 | 4.74124 | 1123 ft | 178 kts | 16° |
| 2026-05-05 12:21 | 52.34663 | 4.74763 | 2196 ft | 182 kts | 22° |
| 2026-05-05 12:22 | 52.35914 | 4.75565 | 2864 ft | 203 kts | 23° |
| 2026-05-05 12:22 | 52.37232 | 4.76428 | 3279 ft | 208 kts | 24° |
| 2026-05-05 12:22 | 52.38416 | 4.77807 | 3580 ft | 212 kts | 46° |
| 2026-05-05 12:22 | 52.39434 | 4.79580 | 3933 ft | 220 kts | 46° |
| 2026-05-05 12:23 | 52.40554 | 4.81493 | 4137 ft | 246 kts | 45° |
| 2026-05-05 12:23 | 52.41739 | 4.83599 | 4852 ft | 256 kts | 54° |
| 2026-05-05 12:23 | 52.42381 | 4.86340 | 5610 ft | 265 kts | 84° |
| 2026-05-05 12:23 | 52.42422 | 4.89397 | 6413 ft | 271 kts | 90° |
| 2026-05-05 12:24 | 52.42423 | 4.92510 | 7186 ft | 276 kts | 90° |
| 2026-05-05 12:24 | 52.42284 | 4.95678 | 7939 ft | 282 kts | 103° |
| 2026-05-05 12:24 | 52.41582 | 4.98687 | 8683 ft | 286 kts | 121° |
| 2026-05-05 12:24 | 52.40326 | 5.01225 | 9488 ft | 289 kts | 139° |
| 2026-05-05 12:25 | 52.38696 | 5.03197 | 10181 ft | 296 kts | 146° |
| 2026-05-05 12:25 | 52.36946 | 5.05203 | 10416 ft | 319 kts | 146° |
| 2026-05-05 12:25 | 52.35067 | 5.07363 | 10683 ft | 338 kts | 145° |
| 2026-05-05 12:25 | 52.33199 | 5.09773 | 11263 ft | 346 kts | 136° |
| 2026-05-05 12:26 | 52.31561 | 5.12687 | 11975 ft | 350 kts | 132° |
| 2026-05-05 12:26 | 52.29930 | 5.15679 | 12701 ft | 355 kts | 132° |
| 2026-05-05 12:26 | 52.28272 | 5.18699 | 13371 ft | 360 kts | 132° |
| 2026-05-05 12:26 | 52.26590 | 5.21751 | 14038 ft | 363 kts | 133° |
| 2026-05-05 12:27 | 52.24892 | 5.24829 | 14675 ft | 367 kts | 132° |
| 2026-05-05 12:27 | 52.23336 | 5.28162 | 15340 ft | 370 kts | 127° |
| 2026-05-05 12:27 | 52.21845 | 5.31607 | 16038 ft | 372 kts | 126° |
| 2026-05-05 12:27 | 52.20346 | 5.35067 | 16698 ft | 375 kts | 126° |
| 2026-05-05 12:28 | 52.18837 | 5.38543 | 17357 ft | 377 kts | 126° |
| 2026-05-05 12:28 | 52.17313 | 5.42049 | 18004 ft | 380 kts | 127° |
| 2026-05-05 12:28 | 52.15782 | 5.45567 | 18601 ft | 382 kts | 127° |
| 2026-05-05 12:28 | 52.14243 | 5.49097 | 19228 ft | 382 kts | 127° |
| 2026-05-05 12:29 | 52.12701 | 5.52629 | 19766 ft | 385 kts | 127° |
| 2026-05-05 12:29 | 52.11143 | 5.56192 | 20286 ft | 388 kts | 127° |
| 2026-05-05 12:29 | 52.09590 | 5.59732 | 20779 ft | 391 kts | 127° |
| 2026-05-05 12:29 | 52.08004 | 5.63342 | 21306 ft | 394 kts | 127° |
| 2026-05-05 12:30 | 52.06399 | 5.66978 | 21812 ft | 397 kts | 129° |
| 2026-05-05 12:30 | 52.04624 | 5.70414 | 22311 ft | 399 kts | 133° |
| 2026-05-05 12:30 | 52.02796 | 5.73820 | 22805 ft | 402 kts | 133° |
| 2026-05-05 12:30 | 52.00953 | 5.77253 | 23284 ft | 405 kts | 133° |
| 2026-05-05 12:31 | 51.99095 | 5.80710 | 23720 ft | 408 kts | 133° |
| 2026-05-05 12:31 | 51.97223 | 5.84189 | 24124 ft | 410 kts | 133° |
| 2026-05-05 12:31 | 51.95345 | 5.87686 | 24519 ft | 413 kts | 133° |
| 2026-05-05 12:31 | 51.93453 | 5.91214 | 24913 ft | 416 kts | 133° |
| 2026-05-05 12:32 | 51.91553 | 5.94760 | 25325 ft | 418 kts | 133° |
| 2026-05-05 12:32 | 51.89641 | 5.98329 | 25734 ft | 421 kts | 134° |
| 2026-05-05 12:32 | 51.87718 | 6.01909 | 26167 ft | 422 kts | 134° |
| 2026-05-05 12:32 | 51.85788 | 6.05494 | 26586 ft | 423 kts | 134° |
| 2026-05-05 12:33 | 51.83847 | 6.09089 | 26973 ft | 425 kts | 134° |
| 2026-05-05 12:33 | 51.81892 | 6.12691 | 27362 ft | 428 kts | 135° |
| 2026-05-05 12:33 | 51.79918 | 6.16311 | 27741 ft | 430 kts | 135° |
| 2026-05-05 12:33 | 51.77938 | 6.19930 | 28120 ft | 432 kts | 135° |
| 2026-05-05 12:34 | 51.75940 | 6.23581 | 28481 ft | 435 kts | 135° |
| 2026-05-05 12:34 | 51.73931 | 6.27251 | 28844 ft | 437 kts | 135° |
| 2026-05-05 12:34 | 51.71911 | 6.30935 | 29174 ft | 439 kts | 135° |
| 2026-05-05 12:34 | 51.69883 | 6.34627 | 29540 ft | 441 kts | 135° |
| 2026-05-05 12:35 | 51.67846 | 6.38328 | 29884 ft | 443 kts | 135° |
| 2026-05-05 12:35 | 51.65795 | 6.42042 | 30178 ft | 445 kts | 136° |
| 2026-05-05 12:35 | 51.63732 | 6.45775 | 30462 ft | 447 kts | 136° |
| 2026-05-05 12:35 | 51.61667 | 6.49515 | 30764 ft | 448 kts | 135° |
| 2026-05-05 12:36 | 51.59593 | 6.53268 | 31190 ft | 447 kts | 135° |
| 2026-05-05 12:36 | 51.57531 | 6.56992 | 31612 ft | 446 kts | 136° |
| 2026-05-05 12:36 | 51.55469 | 6.60711 | 32032 ft | 445 kts | 136° |
| 2026-05-05 12:36 | 51.53411 | 6.64417 | 32439 ft | 444 kts | 136° |
| 2026-05-05 12:37 | 51.51359 | 6.68113 | 32848 ft | 444 kts | 136° |
| 2026-05-05 12:37 | 51.49300 | 6.71812 | 33258 ft | 443 kts | 137° |
| 2026-05-05 12:37 | 51.47245 | 6.75493 | 33618 ft | 443 kts | 137° |
| 2026-05-05 12:37 | 51.45180 | 6.79178 | 33964 ft | 444 kts | 137° |
| 2026-05-05 12:38 | 51.43118 | 6.82852 | 34289 ft | 444 kts | 137° |
| 2026-05-05 12:38 | 51.40993 | 6.86427 | 34577 ft | 440 kts | 143° |
| 2026-05-05 12:38 | 51.38614 | 6.89458 | 34862 ft | 435 kts | 152° |
| 2026-05-05 12:38 | 51.36074 | 6.92042 | 35159 ft | 433 kts | 153° |
| 2026-05-05 12:39 | 51.33530 | 6.94600 | 35538 ft | 431 kts | 153° |
| 2026-05-05 12:39 | 51.30993 | 6.97148 | 35826 ft | 431 kts | 153° |
| 2026-05-05 12:39 | 51.25948 | 7.02214 | 35887 ft | 426 kts | 153° |
| 2026-05-05 12:40 | 51.20937 | 7.07226 | 35888 ft | 425 kts | 153° |
| 2026-05-05 12:40 | 51.15936 | 7.12228 | 35878 ft | 424 kts | 153° |
| 2026-05-05 12:41 | 51.10940 | 7.17207 | 35863 ft | 422 kts | 153° |
| 2026-05-05 12:41 | 51.05970 | 7.22145 | 35865 ft | 420 kts | 153° |
| 2026-05-05 12:42 | 51.01049 | 7.27016 | 35866 ft | 420 kts | 153° |
| 2026-05-05 12:42 | 50.96094 | 7.31924 | 35867 ft | 420 kts | 153° |
| 2026-05-05 12:43 | 50.91132 | 7.36814 | 35869 ft | 420 kts | 153° |
| 2026-05-05 12:43 | 50.86173 | 7.41687 | 35867 ft | 420 kts | 153° |
| 2026-05-05 12:44 | 50.81209 | 7.46569 | 35864 ft | 420 kts | 153° |
| 2026-05-05 12:44 | 50.76245 | 7.51435 | 35839 ft | 420 kts | 153° |
| 2026-05-05 12:45 | 50.71277 | 7.56285 | 35849 ft | 420 kts | 153° |
| 2026-05-05 12:45 | 50.67195 | 7.60440 | 35853 ft | 420 kts | 152° |
| 2026-05-05 12:46 | 50.61575 | 7.66362 | 35852 ft | 420 kts | 151° |
| 2026-05-05 12:46 | 50.56717 | 7.71446 | 35863 ft | 418 kts | 151° |
| 2026-05-05 12:47 | 50.51858 | 7.76445 | 35862 ft | 417 kts | 152° |
| 2026-05-05 12:47 | 50.47786 | 7.80607 | 35858 ft | 416 kts | 152° |
| 2026-05-05 12:48 | 50.42936 | 7.85564 | 35855 ft | 416 kts | 152° |
| 2026-05-05 12:48 | 50.38133 | 7.90481 | 35824 ft | 416 kts | 152° |
| 2026-05-05 12:49 | 50.33283 | 7.95423 | 35831 ft | 415 kts | 152° |
| 2026-05-05 12:49 | 50.28443 | 8.00349 | 35837 ft | 415 kts | 152° |
| 2026-05-05 12:50 | 50.23603 | 8.05260 | 35845 ft | 415 kts | 152° |
| 2026-05-05 12:50 | 50.18765 | 8.10163 | 35851 ft | 415 kts | 152° |
| 2026-05-05 12:51 | 50.13885 | 8.14927 | 35854 ft | 411 kts | 158° |
| 2026-05-05 12:51 | 50.08579 | 8.17980 | 35866 ft | 405 kts | 165° |
| 2026-05-05 12:52 | 50.03225 | 8.20703 | 35869 ft | 405 kts | 165° |
| 2026-05-05 12:52 | 49.97881 | 8.23442 | 35848 ft | 404 kts | 165° |
| 2026-05-05 12:53 | 49.92533 | 8.26167 | 35844 ft | 404 kts | 165° |
| 2026-05-05 12:53 | 49.87184 | 8.28898 | 35830 ft | 405 kts | 165° |
| 2026-05-05 12:54 | 49.79170 | 8.32956 | 35839 ft | 404 kts | 165° |
| 2026-05-05 12:55 | 49.73832 | 8.35646 | 35836 ft | 403 kts | 165° |
| 2026-05-05 12:55 | 49.68496 | 8.38333 | 35838 ft | 404 kts | 165° |
| 2026-05-05 12:56 | 49.63194 | 8.41013 | 35838 ft | 403 kts | 165° |
| 2026-05-05 12:56 | 49.57860 | 8.43689 | 35841 ft | 404 kts | 165° |
| 2026-05-05 12:57 | 49.52524 | 8.46360 | 35865 ft | 404 kts | 165° |
| 2026-05-05 12:57 | 49.47182 | 8.49039 | 35836 ft | 403 kts | 165° |
| 2026-05-05 12:58 | 49.41854 | 8.51702 | 35826 ft | 403 kts | 164° |
| 2026-05-05 12:58 | 49.36513 | 8.54343 | 35825 ft | 403 kts | 164° |
| 2026-05-05 12:59 | 49.31172 | 8.56989 | 35828 ft | 404 kts | 164° |
| 2026-05-05 12:59 | 49.25826 | 8.59640 | 35835 ft | 404 kts | 164° |
| 2026-05-05 13:00 | 49.17805 | 8.63604 | 35841 ft | 405 kts | 164° |
| 2026-05-05 13:01 | 49.07063 | 8.68884 | 35850 ft | 406 kts | 164° |
| 2026-05-05 13:01 | 49.01681 | 8.71525 | 35853 ft | 406 kts | 164° |
| 2026-05-05 13:02 | 48.96334 | 8.74138 | 35857 ft | 406 kts | 164° |
| 2026-05-05 13:02 | 48.90928 | 8.76665 | 35853 ft | 406 kts | 170° |
| 2026-05-05 13:03 | 48.85336 | 8.77038 | 35843 ft | 403 kts | 188° |
| 2026-05-05 13:03 | 48.79807 | 8.75560 | 35850 ft | 404 kts | 190° |
| 2026-05-05 13:04 | 48.74267 | 8.74067 | 35855 ft | 405 kts | 190° |
| 2026-05-05 13:04 | 48.68715 | 8.72586 | 35843 ft | 405 kts | 190° |
| 2026-05-05 13:05 | 48.63160 | 8.71106 | 35848 ft | 405 kts | 190° |
| 2026-05-05 13:05 | 48.57610 | 8.69630 | 35850 ft | 405 kts | 190° |
| 2026-05-05 13:06 | 48.52049 | 8.68155 | 35855 ft | 406 kts | 190° |
| 2026-05-05 13:06 | 48.46479 | 8.66680 | 35858 ft | 406 kts | 190° |
| 2026-05-05 13:07 | 48.40906 | 8.65209 | 35577 ft | 408 kts | 190° |
| 2026-05-05 13:07 | 48.38065 | 8.64459 | 34479 ft | 420 kts | 189° |
| 2026-05-05 13:07 | 48.35170 | 8.63658 | 33622 ft | 425 kts | 190° |
| 2026-05-05 13:08 | 48.32264 | 8.62797 | 32721 ft | 427 kts | 190° |
| 2026-05-05 13:08 | 48.29345 | 8.61897 | 31924 ft | 428 kts | 190° |
| 2026-05-05 13:08 | 48.26435 | 8.60985 | 31212 ft | 427 kts | 190° |
| 2026-05-05 13:08 | 48.23538 | 8.60085 | 30590 ft | 424 kts | 190° |
| 2026-05-05 13:09 | 48.20657 | 8.59198 | 29969 ft | 419 kts | 189° |
| 2026-05-05 13:09 | 48.17843 | 8.58342 | 28645 ft | 409 kts | 189° |
| 2026-05-05 13:09 | 48.15071 | 8.57506 | 27307 ft | 403 kts | 189° |
| 2026-05-05 13:09 | 48.12348 | 8.56695 | 26041 ft | 396 kts | 190° |
| 2026-05-05 13:10 | 48.09667 | 8.55905 | 24869 ft | 390 kts | 190° |
| 2026-05-05 13:10 | 48.07068 | 8.55143 | 24372 ft | 366 kts | 190° |
| 2026-05-05 13:10 | 48.04651 | 8.54432 | 24004 ft | 344 kts | 190° |
| 2026-05-05 13:10 | 48.02365 | 8.53756 | 23597 ft | 330 kts | 191° |
| 2026-05-05 13:11 | 48.00086 | 8.53079 | 23137 ft | 334 kts | 191° |
| 2026-05-05 13:11 | 47.97799 | 8.52470 | 22704 ft | 333 kts | 185° |
| 2026-05-05 13:11 | 47.95496 | 8.52452 | 22298 ft | 331 kts | 174° |
| 2026-05-05 13:11 | 47.93245 | 8.53128 | 21867 ft | 331 kts | 163° |
| 2026-05-05 13:12 | 47.91156 | 8.54446 | 21429 ft | 331 kts | 153° |
| 2026-05-05 13:12 | 47.89207 | 8.56278 | 20990 ft | 332 kts | 149° |
| 2026-05-05 13:12 | 47.87272 | 8.58155 | 20536 ft | 331 kts | 149° |
| 2026-05-05 13:12 | 47.85345 | 8.60016 | 20079 ft | 331 kts | 149° |
| 2026-05-05 13:13 | 47.83414 | 8.61877 | 19621 ft | 330 kts | 149° |
| 2026-05-05 13:13 | 47.81485 | 8.63732 | 19150 ft | 330 kts | 149° |
| 2026-05-05 13:13 | 47.79561 | 8.65584 | 18703 ft | 330 kts | 149° |
| 2026-05-05 13:13 | 47.77636 | 8.67443 | 18244 ft | 330 kts | 149° |
| 2026-05-05 13:14 | 47.75710 | 8.69302 | 17749 ft | 330 kts | 149° |
| 2026-05-05 13:14 | 47.73790 | 8.71150 | 17286 ft | 328 kts | 150° |
| 2026-05-05 13:14 | 47.71879 | 8.72987 | 16844 ft | 326 kts | 150° |
| 2026-05-05 13:14 | 47.69974 | 8.74812 | 16399 ft | 325 kts | 151° |
| 2026-05-05 13:15 | 47.67937 | 8.76147 | 15951 ft | 318 kts | 170° |
| 2026-05-05 13:15 | 47.65768 | 8.76344 | 15530 ft | 311 kts | 189° |
| 2026-05-05 13:15 | 47.63718 | 8.75444 | 15096 ft | 307 kts | 208° |
| 2026-05-05 13:15 | 47.62004 | 8.73586 | 14621 ft | 306 kts | 227° |
| 2026-05-05 13:16 | 47.60815 | 8.70978 | 14146 ft | 308 kts | 245° |
| 2026-05-05 13:16 | 47.59987 | 8.68047 | 13658 ft | 310 kts | 246° |
| 2026-05-05 13:16 | 47.59313 | 8.65013 | 13123 ft | 311 kts | 258° |
| 2026-05-05 13:16 | 47.59265 | 8.61807 | 12648 ft | 314 kts | 275° |
| 2026-05-05 13:17 | 47.59898 | 8.58710 | 12190 ft | 318 kts | 293° |
| 2026-05-05 13:17 | 47.61173 | 8.56024 | 11741 ft | 322 kts | 310° |
| 2026-05-05 13:17 | 47.62814 | 8.53748 | 11285 ft | 322 kts | 313° |
| 2026-05-05 13:17 | 47.64458 | 8.51502 | 10860 ft | 320 kts | 313° |
| 2026-05-05 13:18 | 47.66093 | 8.49267 | 10454 ft | 319 kts | 313° |
| 2026-05-05 13:18 | 47.67713 | 8.47048 | 10143 ft | 314 kts | 313° |
| 2026-05-05 13:18 | 47.69266 | 8.44924 | 9842 ft | 295 kts | 313° |
| 2026-05-05 13:18 | 47.70768 | 8.42871 | 9362 ft | 291 kts | 313° |
| 2026-05-05 13:19 | 47.72231 | 8.40865 | 9241 ft | 282 kts | 312° |
| 2026-05-05 13:19 | 47.73467 | 8.38726 | 9112 ft | 264 kts | 292° |
| 2026-05-05 13:19 | 47.73949 | 8.36209 | 8829 ft | 250 kts | 268° |
| 2026-05-05 13:19 | 47.73664 | 8.33723 | 8466 ft | 242 kts | 244° |
| 2026-05-05 13:20 | 47.72736 | 8.31677 | 8085 ft | 239 kts | 226° |
| 2026-05-05 13:20 | 47.71598 | 8.29886 | 7710 ft | 239 kts | 226° |
| 2026-05-05 13:20 | 47.70446 | 8.28090 | 7330 ft | 240 kts | 223° |
| 2026-05-05 13:20 | 47.68997 | 8.26996 | 6958 ft | 243 kts | 190° |
| 2026-05-05 13:21 | 47.67336 | 8.27445 | 6591 ft | 253 kts | 153° |
| 2026-05-05 13:21 | 47.65924 | 8.29105 | 6212 ft | 257 kts | 142° |
| 2026-05-05 13:21 | 47.64608 | 8.30915 | 5819 ft | 259 kts | 140° |
| 2026-05-05 13:21 | 47.63321 | 8.32800 | 5431 ft | 260 kts | 139° |
| 2026-05-05 13:22 | 47.62036 | 8.34642 | 5067 ft | 261 kts | 141° |
| 2026-05-05 13:22 | 47.60707 | 8.36473 | 4712 ft | 261 kts | 141° |
| 2026-05-05 13:22 | 47.59383 | 8.38289 | 4360 ft | 258 kts | 140° |
| 2026-05-05 13:22 | 47.58065 | 8.40099 | 4032 ft | 257 kts | 140° |
| 2026-05-05 13:23 | 47.56787 | 8.41856 | 3989 ft | 237 kts | 139° |
| 2026-05-05 13:23 | 47.55617 | 8.43464 | 3612 ft | 225 kts | 139° |
| 2026-05-05 13:23 | 47.54497 | 8.44998 | 3191 ft | 211 kts | 139° |
| 2026-05-05 13:23 | 47.53501 | 8.46366 | 2897 ft | 178 kts | 140° |
| 2026-05-05 13:24 | 47.52649 | 8.47535 | 2658 ft | 158 kts | 142° |
| 2026-05-05 13:24 | 47.51864 | 8.48609 | 2454 ft | 152 kts | 142° |
| 2026-05-05 13:24 | 47.51094 | 8.49660 | 2242 ft | 149 kts | 139° |
| 2026-05-05 13:24 | 47.50338 | 8.50693 | 2027 ft | 147 kts | 139° |
| 2026-05-05 13:25 | 47.49586 | 8.51722 | 1831 ft | 147 kts | 139° |
| 2026-05-05 13:25 | 47.48842 | 8.52748 | 1615 ft | 146 kts | 138° |
| 2026-05-05 13:25 | 47.48105 | 8.53763 | 1419 ft | 144 kts | 139° |
| 2026-05-05 13:25 | 47.47445 | 8.54672 | 1402 ft | 101 kts | 135° |
| 2026-05-05 13:26 | 47.47083 | 8.55141 | 1397 ft | 16 kts | 139° |
| 2026-05-05 13:26 | 47.46985 | 8.55273 | 1399 ft | 25 kts | 136° |
| 2026-05-05 13:26 | 47.46829 | 8.55491 | 1405 ft | 34 kts | 137° |
| 2026-05-05 13:26 | 47.46667 | 8.55644 | 1400 ft | 19 kts | 159° |
| 2026-05-05 13:27 | 47.46550 | 8.55699 | 1405 ft | 17 kts | 166° |
| 2026-05-05 13:27 | 47.46436 | 8.55740 | 1396 ft | 17 kts | 166° |
| 2026-05-05 13:27 | 47.46336 | 8.55831 | 1404 ft | 19 kts | 139° |
| 2026-05-05 13:27 | 47.46252 | 8.55876 | 1405 ft | 9 kts | 219° |
| 2026-05-05 13:28 | 47.46236 | 8.55781 | 1398 ft | 10 kts | 273° |
| 2026-05-05 13:28 | 47.46243 | 8.55663 | 1398 ft | 13 kts | 275° |
| 2026-05-05 13:28 | 47.46247 | 8.55523 | 1401 ft | 10 kts | 248° |
| 2026-05-05 13:28 | 47.46188 | 8.55494 | 1397 ft | 2 kts | 187° |
| 2026-05-05 13:29 | 47.46176 | 8.55492 | 1399 ft | 4 kts | 185° |
| 2026-05-05 13:29 | 47.46174 | 8.55492 | 1400 ft | 0 kts | 185° |